Auburn, IN (46706)

1:05 PM EDT on July 23, 2016 (GMT -0400)
East Memorial Park | | Change Station
Active Advisory: Heat Advisory

Elev 866 ft 41.36 °N, 85.06 °W | Updated 32 seconds ago

Clear
Clear
88.5 °F
Feels Like 96 °F
N
0.0
Wind Variable Wind from NE
Gusts 0.0 mph

Today
High -- | Low -- °F
--% Chance of Precip.
Yesterday
High -- | Low -- °F
Precip. -- in
Pressure 30.03 in
Visibility 10.0 miles
Clouds Clear
Heat Index 96 °F
Dew Point 73 °F
Humidity 60%
Rainfall 0.00 in
Snow Depth Not available.
6:27 AM 9:05 PM
Waning Gibbous, 84% visible
METAR KGWB 231655Z AUTO 35004KT 10SM CLR 31/18 A3003 RMK AO2
Pressure 30.03 in
Visibility 10.0 miles
Clouds Clear
Heat Index 96 °F
Dew Point 73 °F
Humidity 60%
Rainfall 0.00 in
Snow Depth Not available.
6:27 AM 9:05 PM
Waning Gibbous, 84% visible
METAR KGWB 231655Z AUTO 35004KT 10SM CLR 31/18 A3003 RMK AO2

10-Day Weather Forecast

Almanac

Astronomy

Jul. 23, 2016 Rise Set
Actual Time
Civil Twilight
Nautical Twilight
Astronomical Twilight
Moon
Length of Visible Light
Length of Day
Tomorrow will be .
, % of the Moon is Illuminated

Today's Extremes

State Highs State Lows

Community

WunderPhotos

Upload Photos

1,926,872 photos uploaded!

WunderBlog® & News

Nearby

Air Quality

  Air Quality AQ Index Pollutant
Not available.

Snow Depth

Station Depth Elevation

Earthquake Activity

City Distance Mag. Time & Date
Minimum magnitude displayed is 2.5.

Coastal Water Temperatures

Place Temperature

Stations

Nearby Weather Stations

Station Location Temp. Windchill Dew Point Humidity Wind Precip. Elev Updated Type
                   

Watches & Warnings

Heat Advisory
Issued: 4:02 AM CDT Jul. 23, 2016 – National Weather Service

... Heat advisory remains in effect until 8 PM EDT /7 PM CDT/ this
evening...

Hazardous weather...

* temperatures... highs in the lower 90s this afternoon.

* Maximum afternoon heat index values... around 100.

* Dangerous heat and humidity may continue across the area into
   Sunday.

Impacts...

* impacts... there is a high risk of heat related illnesses for
   people with prolonged outdoor exposure... or without access to
   air conditioning. The elderly... small children... and pets are
   especially susceptible to the heat.

Precautionary/preparedness actions...

A heat advisory means that a period of hot temperatures is
expected. The combination of hot temperatures and high humidity
will combine to create a situation in which heat illnesses are
possible. Drink plenty of fluids... stay in an air-conditioned
room... stay out of the sun... and check up on relatives and
neighbors.

Take extra precautions... if you work or spend time outside. When
possible... reschedule strenuous activities to early morning or
evening. Know the signs and symptoms of heat exhaustion and heat
stroke. Wear light weight and loose fitting clothing when
possible and drink plenty of water.